Weather at Orroroo Airport

Public forecast

Using degrees Celsius for public forecast. Weather courtesy of forecast.io.

Closest aviation weather report (METAR) to Orroroo Airport

Closest report is Whyalla Airport, 60.5 nm (112.0 km) WSW. Retrieved 2021/06/15 02:00 UTC (24 minutes ago):

YWHA 150200Z AUTO 35011KT //// // BKN055 17/11 Q1009

Closest aviation forecast (TAF) to Orroroo Airport

Forecast is more than 12 hours old.

Closest forecast is Whyalla Airport, 60.5 nm (112.0 km) WSW. Retrieved 2018/11/15 18:03 UTC (3 years ago):

TAF YWHA 151701Z 1518/1608 VRB05KT CAVOK FM152300 18012KT CAVOK FM160200 18018KT CAVOK